createdAt,value
2023-01-09T00:01:37.767Z,9.30
2023-01-09T00:04:06.017Z,9.33
2023-01-09T00:06:33.883Z,9.31
2023-01-09T00:09:01.957Z,9.27
2023-01-09T00:11:29.922Z,9.21
2023-01-09T00:13:59.077Z,9.21
2023-01-09T00:16:26.824Z,9.09
2023-01-09T00:18:54.827Z,9.09
2023-01-09T00:21:22.447Z,9.01
2023-01-09T00:23:50.017Z,9.08
2023-01-09T00:26:19.079Z,8.99
2023-01-09T00:28:47.847Z,8.99
2023-01-09T00:31:17.671Z,8.90
2023-01-09T00:33:49.418Z,8.88
2023-01-09T00:36:16.967Z,8.84
2023-01-09T00:38:44.616Z,8.91
2023-01-09T00:41:15.543Z,8.92
2023-01-09T00:43:46.034Z,8.91
2023-01-09T00:46:14.977Z,8.93
2023-01-09T00:48:46.245Z,8.92
2023-01-09T00:51:14.000Z,9.00
2023-01-09T00:53:43.818Z,8.99
2023-01-09T00:56:16.084Z,8.98
2023-01-09T00:58:44.179Z,9.01
2023-01-09T01:01:12.276Z,8.97
2023-01-09T01:03:40.493Z,9.04
2023-01-09T01:06:26.946Z,8.99
2023-01-09T01:08:55.706Z,8.97
2023-01-09T01:11:23.911Z,8.95
2023-01-09T01:13:52.117Z,8.86
2023-01-09T01:16:19.873Z,8.81
2023-01-09T01:18:47.515Z,8.84
2023-01-09T01:21:16.410Z,8.87
2023-01-09T01:23:44.847Z,8.87
2023-01-09T01:26:15.742Z,8.81
2023-01-09T01:28:44.925Z,8.83
2023-01-09T01:31:18.241Z,8.78
2023-01-09T01:33:46.024Z,8.77
2023-01-09T01:36:16.152Z,8.71
2023-01-09T01:38:46.729Z,8.71
2023-01-09T01:41:14.463Z,8.74
2023-01-09T01:43:52.773Z,8.69
2023-01-09T01:46:20.552Z,8.69
2023-01-09T01:48:51.409Z,8.63
2023-01-09T01:51:20.615Z,8.57
2023-01-09T01:53:54.042Z,8.58
2023-01-09T01:56:28.465Z,8.58
2023-01-09T01:59:00.101Z,8.66
2023-01-09T02:01:30.327Z,8.61
2023-01-09T02:04:00.168Z,8.72
2023-01-09T02:06:28.636Z,8.70
2023-01-09T02:08:58.216Z,8.72
2023-01-09T02:11:25.911Z,8.65
2023-01-09T02:13:53.879Z,8.68
2023-01-09T02:16:39.647Z,8.74
2023-01-09T02:19:20.512Z,8.72
2023-01-09T02:22:00.193Z,8.71
2023-01-09T02:24:46.648Z,8.70
2023-01-09T02:27:24.321Z,8.71
2023-01-09T02:30:21.416Z,8.74
2023-01-09T02:33:00.551Z,8.72
2023-01-09T02:35:41.781Z,8.75
2023-01-09T02:38:19.021Z,8.80
2023-01-09T02:40:53.997Z,8.78
2023-01-09T02:43:22.136Z,8.76
2023-01-09T02:45:51.101Z,8.70
2023-01-09T02:48:18.759Z,8.70
2023-01-09T02:50:52.029Z,8.77
2023-01-09T02:53:53.445Z,8.71
2023-01-09T02:56:34.299Z,8.59
2023-01-09T02:59:24.737Z,8.71
2023-01-09T03:02:09.128Z,8.62
2023-01-09T03:04:45.033Z,8.54
2023-01-09T03:07:21.231Z,8.55
2023-01-09T03:09:52.520Z,8.56
2023-01-09T03:12:23.140Z,8.61
2023-01-09T03:14:54.262Z,8.53
2023-01-09T03:17:28.664Z,8.56
2023-01-09T03:19:57.909Z,8.53
2023-01-09T03:22:25.708Z,8.54
2023-01-09T03:24:53.444Z,8.50
2023-01-09T03:27:21.501Z,8.55
2023-01-09T03:29:49.075Z,8.54
2023-01-09T03:32:16.605Z,8.50
2023-01-09T03:34:45.595Z,8.48
2023-01-09T03:37:13.186Z,8.45
2023-01-09T03:39:40.716Z,8.49
2023-01-09T03:42:08.298Z,8.56
2023-01-09T03:44:35.869Z,8.53
2023-01-09T03:47:03.427Z,8.59
2023-01-09T03:49:30.991Z,8.62
2023-01-09T03:51:59.853Z,8.69
2023-01-09T03:54:27.433Z,8.70
2023-01-09T03:56:54.985Z,8.71
2023-01-09T03:59:22.640Z,8.69
2023-01-09T04:01:50.333Z,8.63
2023-01-09T04:04:18.177Z,8.62
2023-01-09T04:06:45.789Z,8.65
2023-01-09T04:09:14.669Z,8.67
2023-01-09T04:11:42.267Z,8.65
2023-01-09T04:14:09.833Z,8.65
2023-01-09T04:16:37.480Z,8.70
2023-01-09T04:19:05.031Z,8.72
2023-01-09T04:21:32.719Z,8.79
2023-01-09T04:24:00.456Z,8.84
2023-01-09T04:26:29.432Z,8.83
2023-01-09T04:28:57.243Z,8.77
2023-01-09T04:31:24.894Z,8.80
2023-01-09T04:33:52.512Z,8.67
2023-01-09T04:36:20.182Z,8.61
2023-01-09T04:38:47.681Z,8.62
2023-01-09T04:41:35.867Z,8.55
2023-01-09T04:44:04.860Z,8.58
2023-01-09T04:46:32.460Z,8.64
2023-01-09T04:49:00.109Z,8.69
2023-01-09T04:51:27.650Z,8.72
2023-01-09T04:53:55.160Z,8.76
2023-01-09T04:56:22.876Z,8.81
2023-01-09T04:58:50.384Z,8.83
2023-01-09T05:01:19.350Z,8.80
2023-01-09T05:03:47.037Z,8.78
2023-01-09T05:06:14.711Z,8.79
2023-01-09T05:08:42.348Z,8.77
2023-01-09T05:11:09.984Z,8.74
2023-01-09T05:13:37.616Z,8.67
2023-01-09T05:16:06.618Z,8.70
2023-01-09T05:18:35.679Z,8.68
2023-01-09T05:21:03.334Z,8.62
2023-01-09T05:23:30.897Z,8.65
2023-01-09T05:25:58.532Z,8.66
2023-01-09T05:28:26.097Z,8.70
2023-01-09T05:30:53.702Z,8.61
2023-01-09T05:33:21.428Z,8.56
2023-01-09T05:35:50.391Z,8.58
2023-01-09T05:38:18.066Z,8.69
2023-01-09T05:40:45.599Z,8.66
2023-01-09T05:43:13.769Z,8.63
2023-01-09T05:45:41.321Z,8.53
2023-01-09T05:48:08.962Z,8.57
2023-01-09T05:50:36.627Z,8.54
2023-01-09T05:53:06.545Z,8.54
2023-01-09T05:55:34.172Z,8.56
2023-01-09T05:58:01.778Z,8.61
2023-01-09T06:00:29.373Z,8.63
2023-01-09T06:02:57.035Z,8.75
2023-01-09T06:05:24.688Z,8.83
2023-01-09T06:07:52.275Z,8.91
2023-01-09T06:10:21.218Z,8.87
2023-01-09T06:12:50.520Z,8.80
2023-01-09T06:15:21.134Z,8.72
2023-01-09T06:17:48.732Z,8.75
2023-01-09T06:20:16.528Z,8.75
2023-01-09T06:22:45.230Z,8.70
2023-01-09T06:25:13.322Z,8.70
2023-01-09T06:27:42.176Z,8.65
2023-01-09T06:30:10.915Z,8.59
2023-01-09T06:32:38.700Z,8.61
2023-01-09T06:35:06.911Z,8.57
2023-01-09T06:37:34.476Z,8.52
2023-01-09T06:40:02.171Z,8.58
2023-01-09T06:42:30.226Z,8.56
2023-01-09T06:44:59.156Z,8.66
2023-01-09T06:47:26.773Z,8.70
2023-01-09T06:49:54.338Z,8.71
2023-01-09T06:52:21.993Z,8.62
2023-01-09T06:54:49.536Z,8.63
2023-01-09T06:57:17.111Z,8.47
2023-01-09T06:59:44.648Z,8.52
2023-01-09T07:02:19.446Z,8.58
2023-01-09T07:04:47.254Z,8.67
2023-01-09T07:07:15.384Z,8.56
2023-01-09T07:09:42.937Z,8.50
2023-01-09T07:12:11.140Z,8.48
2023-01-09T07:14:38.667Z,8.49
2023-01-09T07:17:06.293Z,8.31
2023-01-09T07:19:35.160Z,8.28
2023-01-09T07:22:02.730Z,8.36
2023-01-09T07:24:30.274Z,8.37
2023-01-09T07:26:57.821Z,8.44
2023-01-09T07:29:25.380Z,8.34
2023-01-09T07:31:52.929Z,8.38
2023-01-09T07:34:20.621Z,8.31
2023-01-09T07:36:51.056Z,8.03
2023-01-09T07:39:18.729Z,8.01
2023-01-09T07:41:46.522Z,8.09
2023-01-09T07:44:14.688Z,8.00
2023-01-09T07:46:42.408Z,7.99
2023-01-09T07:49:10.117Z,7.93
2023-01-09T07:51:39.081Z,8.00
2023-01-09T07:54:08.015Z,8.08
2023-01-09T07:56:35.590Z,8.13
2023-01-09T07:59:03.165Z,8.11
2023-01-09T08:01:30.920Z,8.06
2023-01-09T08:03:58.701Z,8.12
2023-01-09T08:06:26.333Z,8.18
2023-01-09T08:08:53.917Z,8.21
2023-01-09T08:11:22.780Z,8.23
2023-01-09T08:13:50.708Z,8.26
2023-01-09T08:16:18.478Z,8.33
2023-01-09T08:18:46.076Z,8.21
2023-01-09T08:21:14.270Z,8.12
2023-01-09T08:23:41.862Z,8.15
2023-01-09T08:26:09.875Z,8.08
2023-01-09T08:28:38.810Z,8.16
2023-01-09T08:31:06.611Z,8.12
2023-01-09T08:33:34.282Z,8.13
2023-01-09T08:36:01.897Z,8.24
2023-01-09T08:38:29.566Z,8.24
2023-01-09T08:40:57.126Z,8.29
2023-01-09T08:43:42.619Z,8.28
2023-01-09T08:46:37.929Z,8.34
2023-01-09T08:49:05.553Z,8.26
2023-01-09T08:51:33.187Z,8.21
2023-01-09T08:54:00.729Z,8.23
2023-01-09T08:56:28.299Z,8.27
2023-01-09T08:58:55.865Z,8.14
2023-01-09T09:01:24.755Z,8.08
2023-01-09T09:03:52.368Z,8.17
2023-01-09T09:06:19.966Z,8.17
2023-01-09T09:08:47.574Z,8.26
2023-01-09T09:11:15.096Z,8.34
2023-01-09T09:13:42.646Z,8.37
2023-01-09T09:16:10.256Z,8.50
2023-01-09T09:18:39.255Z,8.51
2023-01-09T09:21:06.921Z,8.49
2023-01-09T09:23:34.491Z,8.45
2023-01-09T09:26:02.077Z,8.45
2023-01-09T09:28:29.673Z,8.48
2023-01-09T09:30:57.299Z,8.45
2023-01-09T09:33:25.051Z,8.57
2023-01-09T09:35:53.930Z,8.49
2023-01-09T09:38:21.475Z,8.41
2023-01-09T09:41:04.267Z,8.39
2023-01-09T09:44:19.308Z,8.41
2023-01-09T09:46:56.263Z,8.28
2023-01-09T09:49:28.759Z,8.27
2023-01-09T09:52:10.541Z,8.29
2023-01-09T09:54:42.285Z,8.34
2023-01-09T09:57:16.162Z,8.31
2023-01-09T09:59:44.245Z,8.37
2023-01-09T10:02:25.900Z,8.41
2023-01-09T10:05:00.074Z,8.49
2023-01-09T10:07:34.044Z,8.39
2023-01-09T10:10:05.050Z,8.25
2023-01-09T10:12:36.614Z,8.15
2023-01-09T10:15:15.255Z,8.21
2023-01-09T10:17:55.268Z,8.21
2023-01-09T10:20:48.926Z,8.25
2023-01-09T10:23:33.553Z,8.24
2023-01-09T10:26:07.540Z,8.27
2023-01-09T10:28:56.112Z,8.25
2023-01-09T10:31:33.271Z,8.24
2023-01-09T10:34:14.880Z,8.27
2023-01-09T10:37:00.920Z,8.26
2023-01-09T10:39:36.525Z,8.29
2023-01-09T10:42:11.194Z,8.27
2023-01-09T10:44:48.158Z,8.34
2023-01-09T10:47:18.662Z,8.20
2023-01-09T10:49:48.727Z,8.14
2023-01-09T10:52:18.246Z,8.14
2023-01-09T10:54:56.110Z,8.20
2023-01-09T10:57:42.021Z,8.11
2023-01-09T11:00:17.877Z,8.13
2023-01-09T11:02:46.083Z,8.09
2023-01-09T11:05:18.218Z,8.18
2023-01-09T11:07:49.666Z,8.24
2023-01-09T11:10:19.190Z,8.23
2023-01-09T11:12:47.508Z,8.25
2023-01-09T11:15:28.968Z,8.39
2023-01-09T11:18:14.832Z,8.46
2023-01-09T11:20:42.412Z,8.45
2023-01-09T11:23:25.645Z,8.53
2023-01-09T11:25:56.772Z,8.62
2023-01-09T11:28:24.504Z,8.63
2023-01-09T11:30:55.417Z,8.71
2023-01-09T11:33:25.607Z,8.76
2023-01-09T11:36:00.476Z,8.72
2023-01-09T11:38:28.941Z,8.73
2023-01-09T11:41:01.336Z,8.82
2023-01-09T11:43:34.044Z,8.89
2023-01-09T11:46:04.339Z,8.93
2023-01-09T11:48:35.486Z,8.98
2023-01-09T11:51:06.053Z,8.85
2023-01-09T11:53:59.023Z,8.91
2023-01-09T11:56:28.056Z,8.95
2023-01-09T11:58:55.689Z,8.94
2023-01-09T12:01:46.717Z,9.01
2023-01-09T12:04:30.055Z,9.04
2023-01-09T12:07:20.531Z,9.01
2023-01-09T12:10:01.945Z,9.08
2023-01-09T12:12:36.164Z,9.08
2023-01-09T12:15:17.172Z,9.00
2023-01-09T12:17:59.879Z,9.03
2023-01-09T12:20:42.235Z,9.09
2023-01-09T12:23:26.758Z,9.13
2023-01-09T12:26:06.499Z,9.14
2023-01-09T12:28:48.887Z,9.16
2023-01-09T12:31:28.388Z,9.20
2023-01-09T12:34:09.273Z,9.15
2023-01-09T12:36:44.396Z,9.20
2023-01-09T12:39:24.397Z,9.19
2023-01-09T12:42:06.952Z,9.12
2023-01-09T12:44:50.444Z,9.03
2023-01-09T12:47:45.118Z,9.10
2023-01-09T12:50:26.376Z,8.97
2023-01-09T12:53:06.931Z,8.95
2023-01-09T12:55:39.729Z,8.99
2023-01-09T12:58:14.365Z,8.98
2023-01-09T13:00:47.836Z,8.96
2023-01-09T13:03:21.546Z,9.03
2023-01-09T13:05:53.622Z,9.10
2023-01-09T13:08:27.487Z,9.05
2023-01-09T13:11:14.849Z,9.00
2023-01-09T13:13:51.274Z,9.02
2023-01-09T13:16:25.900Z,9.02
2023-01-09T13:18:59.426Z,8.98
2023-01-09T13:21:28.479Z,8.98
2023-01-09T13:24:03.721Z,8.92
2023-01-09T13:26:37.134Z,8.88
2023-01-09T13:29:14.041Z,8.98
2023-01-09T13:32:14.824Z,9.02
2023-01-09T13:34:47.975Z,8.95
2023-01-09T13:37:26.311Z,8.90
2023-01-09T13:40:02.331Z,8.99
2023-01-09T13:42:36.557Z,8.95
2023-01-09T13:45:24.692Z,8.96
2023-01-09T13:48:26.602Z,8.97
2023-01-09T13:51:35.129Z,8.96
2023-01-09T13:54:03.625Z,8.89
2023-01-09T13:56:31.530Z,8.89
2023-01-09T13:59:02.972Z,8.88
2023-01-09T14:01:44.347Z,8.93
2023-01-09T14:04:41.776Z,8.89
2023-01-09T14:07:32.566Z,8.90
2023-01-09T14:10:02.666Z,8.91
2023-01-09T14:12:34.215Z,8.92
2023-01-09T14:15:03.510Z,8.91
2023-01-09T14:17:34.906Z,8.92
2023-01-09T14:20:06.036Z,8.98
2023-01-09T14:22:45.665Z,8.94
2023-01-09T14:25:28.214Z,9.03
2023-01-09T14:28:20.047Z,8.95
2023-01-09T14:31:09.862Z,8.94
2023-01-09T14:33:39.958Z,8.99
2023-01-09T14:36:16.359Z,8.97
2023-01-09T14:38:51.079Z,8.92
2023-01-09T14:41:43.889Z,8.89
2023-01-09T14:44:26.132Z,8.89
2023-01-09T14:46:55.518Z,8.90
2023-01-09T14:49:34.143Z,8.86
2023-01-09T14:52:08.768Z,8.84
2023-01-09T14:54:41.179Z,8.80
2023-01-09T14:57:25.268Z,8.81
2023-01-09T15:00:00.679Z,8.79
2023-01-09T15:02:32.191Z,8.65
2023-01-09T15:05:05.895Z,8.60
2023-01-09T15:07:40.558Z,8.64
2023-01-09T15:10:17.688Z,8.56
2023-01-09T15:12:46.544Z,8.59
2023-01-09T15:15:16.798Z,8.64
2023-01-09T15:17:47.323Z,8.60
2023-01-09T15:20:19.890Z,8.63
2023-01-09T15:22:52.763Z,8.58
2023-01-09T15:25:33.934Z,8.67
2023-01-09T15:28:28.930Z,8.65
2023-01-09T15:31:02.801Z,8.61
2023-01-09T15:33:31.302Z,8.61
2023-01-09T15:36:02.782Z,8.50
2023-01-09T15:38:33.321Z,8.58
2023-01-09T15:41:09.680Z,8.53
2023-01-09T15:43:42.149Z,8.55
2023-01-09T15:46:12.116Z,8.60
2023-01-09T15:48:40.055Z,8.54
2023-01-09T15:51:11.099Z,8.46
2023-01-09T15:53:41.538Z,8.53
2023-01-09T15:56:19.489Z,8.54
2023-01-09T15:58:48.311Z,8.57
2023-01-09T16:01:29.789Z,8.40
2023-01-09T16:04:05.010Z,8.30
2023-01-09T16:06:36.699Z,8.36
2023-01-09T16:09:15.726Z,8.43
2023-01-09T16:11:49.225Z,8.40
2023-01-09T16:14:22.863Z,8.33
2023-01-09T16:16:53.005Z,8.28
2023-01-09T16:19:32.228Z,8.14
2023-01-09T16:22:01.544Z,7.99
2023-01-09T16:24:40.655Z,7.91
2023-01-09T16:27:23.790Z,8.07
2023-01-09T16:29:57.568Z,8.13
2023-01-09T16:32:28.473Z,8.24
2023-01-09T16:34:58.010Z,8.38
2023-01-09T16:37:27.119Z,8.40
2023-01-09T16:40:26.347Z,8.44
2023-01-09T16:43:03.954Z,8.55
2023-01-09T16:45:37.347Z,8.50
2023-01-09T16:48:13.043Z,8.56
2023-01-09T16:50:41.124Z,8.40
2023-01-09T16:53:15.502Z,8.31
2023-01-09T16:55:43.466Z,8.23
2023-01-09T16:58:17.004Z,8.25
2023-01-09T17:00:46.061Z,8.20
2023-01-09T17:03:15.477Z,8.18
2023-01-09T17:05:43.760Z,8.11
2023-01-09T17:08:24.641Z,7.91
2023-01-09T17:10:52.820Z,7.92
2023-01-09T17:13:22.027Z,8.09
2023-01-09T17:15:50.143Z,8.07
2023-01-09T17:18:19.673Z,8.12
2023-01-09T17:20:50.884Z,8.09
2023-01-09T17:23:20.759Z,8.05
2023-01-09T17:26:15.649Z,8.12
2023-01-09T17:28:48.890Z,8.11
2023-01-09T17:31:16.599Z,8.13
2023-01-09T17:33:44.275Z,8.13
2023-01-09T17:36:22.680Z,8.12
2023-01-09T17:38:54.706Z,8.07
2023-01-09T17:41:23.425Z,8.01
2023-01-09T17:43:53.242Z,8.05
2023-01-09T17:46:27.193Z,8.03
2023-01-09T17:48:54.987Z,8.00
2023-01-09T17:51:23.041Z,8.04
2023-01-09T17:53:51.052Z,7.97
2023-01-09T17:56:20.804Z,8.06
2023-01-09T17:58:48.738Z,8.05
2023-01-09T18:01:19.465Z,8.06
2023-01-09T18:03:48.761Z,8.07
2023-01-09T18:06:18.380Z,8.00
2023-01-09T18:08:45.982Z,7.92
2023-01-09T18:11:17.454Z,7.89
2023-01-09T18:13:45.538Z,7.97
2023-01-09T18:16:13.987Z,7.91
2023-01-09T18:18:44.838Z,7.82
2023-01-09T18:21:16.550Z,7.84
2023-01-09T18:23:44.279Z,7.88
2023-01-09T18:26:20.000Z,7.76
2023-01-09T18:28:49.926Z,7.91
2023-01-09T18:31:21.976Z,7.94
2023-01-09T18:33:52.594Z,7.94
2023-01-09T18:36:21.563Z,7.98
2023-01-09T18:38:53.473Z,8.13
2023-01-09T18:41:22.575Z,8.23
2023-01-09T18:43:50.785Z,8.23
2023-01-09T18:46:20.558Z,8.24
2023-01-09T18:48:53.348Z,8.26
2023-01-09T18:51:22.051Z,8.31
2023-01-09T18:53:50.015Z,8.17
2023-01-09T18:56:19.120Z,8.05
2023-01-09T18:58:46.963Z,8.08
2023-01-09T19:01:15.229Z,8.08
2023-01-09T19:03:43.264Z,8.04
2023-01-09T19:06:13.608Z,7.95
2023-01-09T19:08:41.177Z,7.98
2023-01-09T19:11:08.953Z,7.96
2023-01-09T19:13:37.842Z,7.80
2023-01-09T19:16:07.142Z,7.96
2023-01-09T19:18:35.981Z,8.14
2023-01-09T19:21:09.265Z,8.07
2023-01-09T19:23:38.255Z,8.26
2023-01-09T19:26:09.160Z,8.34
2023-01-09T19:28:38.136Z,8.28
2023-01-09T19:31:05.991Z,8.29
2023-01-09T19:33:33.551Z,8.22
2023-01-09T19:36:01.175Z,8.26
2023-01-09T19:38:28.787Z,8.28
2023-01-09T19:41:08.896Z,8.32
2023-01-09T19:43:36.635Z,8.29
2023-01-09T19:46:07.965Z,8.09
2023-01-09T19:48:35.629Z,8.01
2023-01-09T19:51:04.411Z,8.00
2023-01-09T19:53:32.702Z,7.94
2023-01-09T19:56:13.312Z,7.91
2023-01-09T19:58:41.342Z,8.04
2023-01-09T20:01:12.231Z,8.08
2023-01-09T20:03:41.473Z,7.98
2023-01-09T20:06:14.851Z,8.00
2023-01-09T20:08:42.632Z,7.98
2023-01-09T20:11:12.361Z,8.05
2023-01-09T20:13:40.197Z,8.08
2023-01-09T20:16:09.080Z,8.02
2023-01-09T20:18:36.873Z,8.04
2023-01-09T20:21:04.698Z,8.11
2023-01-09T20:23:33.354Z,8.00
2023-01-09T20:26:01.473Z,8.05
2023-01-09T20:28:30.451Z,8.11
2023-01-09T20:30:58.176Z,8.08
2023-01-09T20:33:26.015Z,8.17
2023-01-09T20:35:53.605Z,8.13
2023-01-09T20:38:21.173Z,8.21
2023-01-09T20:40:48.782Z,8.23
2023-01-09T20:43:16.462Z,8.16
2023-01-09T20:45:45.530Z,8.16
2023-01-09T20:48:14.490Z,8.10
2023-01-09T20:50:42.542Z,8.09
2023-01-09T20:53:10.164Z,8.01
2023-01-09T20:55:37.746Z,7.94
2023-01-09T20:58:05.415Z,8.00
2023-01-09T21:00:33.047Z,8.12
2023-01-09T21:03:02.122Z,8.21
2023-01-09T21:05:29.829Z,8.16
2023-01-09T21:07:57.610Z,8.16
2023-01-09T21:10:25.262Z,8.15
2023-01-09T21:12:52.847Z,8.18
2023-01-09T21:15:21.384Z,8.16
2023-01-09T21:17:49.193Z,8.13
2023-01-09T21:20:18.683Z,8.09
2023-01-09T21:22:46.417Z,7.96
2023-01-09T21:25:15.751Z,8.03
2023-01-09T21:27:45.432Z,7.76
2023-01-09T21:30:13.676Z,7.81
2023-01-09T21:32:41.603Z,7.94
2023-01-09T21:35:10.265Z,8.18
2023-01-09T21:37:39.546Z,8.33
2023-01-09T21:40:12.161Z,8.36
2023-01-09T21:42:57.864Z,8.38
2023-01-09T21:45:43.186Z,8.30
2023-01-09T21:48:11.877Z,8.22
2023-01-09T21:50:41.019Z,8.07
2023-01-09T21:53:10.151Z,8.13
2023-01-09T21:55:38.097Z,8.16
2023-01-09T21:58:05.984Z,8.15
2023-01-09T22:00:33.800Z,8.11
2023-01-09T22:03:01.980Z,8.08
2023-01-09T22:05:29.845Z,8.05
2023-01-09T22:07:57.874Z,8.06
2023-01-09T22:10:28.203Z,8.11
2023-01-09T22:13:16.106Z,8.04
2023-01-09T22:15:44.853Z,7.88
2023-01-09T22:18:12.532Z,7.86
2023-01-09T22:20:40.177Z,7.87
2023-01-09T22:23:07.996Z,7.93
2023-01-09T22:25:38.747Z,7.90
2023-01-09T22:28:09.956Z,7.72
2023-01-09T22:30:40.375Z,7.82
2023-01-09T22:33:10.653Z,7.76
2023-01-09T22:35:38.716Z,7.78
2023-01-09T22:38:06.543Z,7.90
2023-01-09T22:40:34.267Z,7.91
2023-01-09T22:43:03.241Z,7.93
2023-01-09T22:45:30.997Z,7.95
2023-01-09T22:47:58.618Z,7.84
2023-01-09T22:50:26.518Z,7.83
2023-01-09T22:52:54.133Z,7.87
2023-01-09T22:55:21.700Z,7.82
2023-01-09T22:57:49.567Z,7.93
2023-01-09T23:00:19.321Z,7.96
2023-01-09T23:02:48.278Z,7.99
2023-01-09T23:05:16.251Z,8.05
2023-01-09T23:07:43.912Z,8.04
2023-01-09T23:10:12.219Z,8.01
2023-01-09T23:12:39.859Z,8.07
2023-01-09T23:15:09.965Z,8.14
2023-01-09T23:17:38.827Z,8.15
2023-01-09T23:20:07.316Z,8.10
2023-01-09T23:22:34.958Z,7.99
2023-01-09T23:25:02.661Z,8.02
2023-01-09T23:27:30.248Z,7.99
2023-01-09T23:29:57.870Z,7.98
2023-01-09T23:32:25.463Z,7.97
2023-01-09T23:34:55.326Z,7.82
2023-01-09T23:37:22.961Z,7.80
2023-01-09T23:39:50.678Z,7.89
2023-01-09T23:42:44.265Z,7.90
2023-01-09T23:45:11.921Z,7.80
2023-01-09T23:47:39.537Z,7.90
2023-01-09T23:50:10.874Z,7.90
2023-01-09T23:52:38.499Z,7.90
2023-01-09T23:55:07.232Z,7.93
2023-01-09T23:57:34.826Z,7.91
